sensor_id;sensor_type;location;lat;lon;timestamp;P1;durP1;ratioP1;P2;durP2;ratioP2
5149;SDS011;2593;52.466;13.436;2022-10-16T00:00:41;2.67;;;2.47;;
5149;SDS011;2593;52.466;13.436;2022-10-16T00:03:08;2.10;;;2.00;;
5149;SDS011;2593;52.466;13.436;2022-10-16T00:05:38;2.63;;;2.43;;
5149;SDS011;2593;52.466;13.436;2022-10-16T00:08:06;3.27;;;3.07;;
5149;SDS011;2593;52.466;13.436;2022-10-16T00:10:32;2.70;;;2.47;;
5149;SDS011;2593;52.466;13.436;2022-10-16T00:12:58;2.73;;;2.60;;
5149;SDS011;2593;52.466;13.436;2022-10-16T00:15:24;2.23;;;2.13;;
5149;SDS011;2593;52.466;13.436;2022-10-16T00:17:49;2.30;;;1.90;;
5149;SDS011;2593;52.466;13.436;2022-10-16T00:20:15;2.10;;;1.93;;
5149;SDS011;2593;52.466;13.436;2022-10-16T00:22:40;2.20;;;2.10;;
5149;SDS011;2593;52.466;13.436;2022-10-16T00:25:06;2.20;;;2.10;;
5149;SDS011;2593;52.466;13.436;2022-10-16T00:27:32;2.30;;;2.10;;
5149;SDS011;2593;52.466;13.436;2022-10-16T00:29:58;4.20;;;2.17;;
5149;SDS011;2593;52.466;13.436;2022-10-16T00:32:24;2.30;;;2.10;;
5149;SDS011;2593;52.466;13.436;2022-10-16T00:34:49;2.37;;;2.17;;
5149;SDS011;2593;52.466;13.436;2022-10-16T00:37:16;2.87;;;2.13;;
5149;SDS011;2593;52.466;13.436;2022-10-16T00:39:41;11.53;;;3.23;;
5149;SDS011;2593;52.466;13.436;2022-10-16T00:42:09;2.03;;;1.83;;
5149;SDS011;2593;52.466;13.436;2022-10-16T00:47:26;3.47;;;1.97;;
5149;SDS011;2593;52.466;13.436;2022-10-16T00:49:54;2.03;;;1.90;;
5149;SDS011;2593;52.466;13.436;2022-10-16T00:52:24;3.70;;;2.30;;
5149;SDS011;2593;52.466;13.436;2022-10-16T00:54:50;2.10;;;2.00;;
5149;SDS011;2593;52.466;13.436;2022-10-16T00:57:18;3.50;;;2.60;;
5149;SDS011;2593;52.466;13.436;2022-10-16T00:59:44;5.17;;;1.97;;
5149;SDS011;2593;52.466;13.436;2022-10-16T01:02:11;1.93;;;1.83;;
5149;SDS011;2593;52.466;13.436;2022-10-16T01:04:45;2.00;;;1.90;;
5149;SDS011;2593;52.466;13.436;2022-10-16T01:21:21;2.40;;;2.20;;
5149;SDS011;2593;52.466;13.436;2022-10-16T01:23:55;2.27;;;2.17;;
5149;SDS011;2593;52.466;13.436;2022-10-16T01:29:30;3.93;;;2.47;;
5149;SDS011;2593;52.466;13.436;2022-10-16T01:32:19;2.37;;;2.27;;
5149;SDS011;2593;52.466;13.436;2022-10-16T01:34:47;2.70;;;2.50;;
5149;SDS011;2593;52.466;13.436;2022-10-16T01:37:22;2.50;;;2.30;;
5149;SDS011;2593;52.466;13.436;2022-10-16T01:40:02;2.83;;;2.63;;
5149;SDS011;2593;52.466;13.436;2022-10-16T01:42:35;2.37;;;2.17;;
5149;SDS011;2593;52.466;13.436;2022-10-16T01:45:04;2.20;;;2.10;;
5149;SDS011;2593;52.466;13.436;2022-10-16T01:47:32;8.83;;;2.80;;
5149;SDS011;2593;52.466;13.436;2022-10-16T01:50:00;3.57;;;2.63;;
5149;SDS011;2593;52.466;13.436;2022-10-16T01:52:29;2.73;;;2.50;;
5149;SDS011;2593;52.466;13.436;2022-10-16T01:54:59;2.50;;;2.20;;
5149;SDS011;2593;52.466;13.436;2022-10-16T01:57:29;2.90;;;2.43;;
5149;SDS011;2593;52.466;13.436;2022-10-16T01:59:56;2.33;;;2.13;;
5149;SDS011;2593;52.466;13.436;2022-10-16T02:02:26;3.53;;;2.20;;
5149;SDS011;2593;52.466;13.436;2022-10-16T02:04:58;6.73;;;2.57;;
5149;SDS011;2593;52.466;13.436;2022-10-16T02:07:30;6.20;;;2.63;;
5149;SDS011;2593;52.466;13.436;2022-10-16T02:09:55;2.60;;;2.50;;
5149;SDS011;2593;52.466;13.436;2022-10-16T02:14:50;3.20;;;2.20;;
5149;SDS011;2593;52.466;13.436;2022-10-16T02:17:17;2.70;;;2.50;;
5149;SDS011;2593;52.466;13.436;2022-10-16T02:19:43;2.77;;;2.57;;
5149;SDS011;2593;52.466;13.436;2022-10-16T02:22:15;2.47;;;2.30;;
5149;SDS011;2593;52.466;13.436;2022-10-16T02:24:48;2.77;;;2.07;;
5149;SDS011;2593;52.466;13.436;2022-10-16T02:30:13;4.73;;;2.43;;
5149;SDS011;2593;52.466;13.436;2022-10-16T02:32:41;2.20;;;2.10;;
5149;SDS011;2593;52.466;13.436;2022-10-16T02:35:08;2.27;;;1.97;;
5149;SDS011;2593;52.466;13.436;2022-10-16T02:37:35;2.23;;;1.77;;
5149;SDS011;2593;52.466;13.436;2022-10-16T02:40:03;4.70;;;2.30;;
5149;SDS011;2593;52.466;13.436;2022-10-16T02:42:34;2.80;;;2.03;;
5149;SDS011;2593;52.466;13.436;2022-10-16T02:45:00;7.33;;;2.00;;
5149;SDS011;2593;52.466;13.436;2022-10-16T02:47:26;1.83;;;1.60;;
5149;SDS011;2593;52.466;13.436;2022-10-16T02:49:52;2.23;;;2.03;;
5149;SDS011;2593;52.466;13.436;2022-10-16T02:52:18;2.23;;;2.10;;
5149;SDS011;2593;52.466;13.436;2022-10-16T02:54:43;2.30;;;2.10;;
5149;SDS011;2593;52.466;13.436;2022-10-16T02:57:09;1.87;;;1.77;;
5149;SDS011;2593;52.466;13.436;2022-10-16T02:59:34;2.20;;;1.30;;
5149;SDS011;2593;52.466;13.436;2022-10-16T03:02:00;1.87;;;1.77;;
5149;SDS011;2593;52.466;13.436;2022-10-16T03:04:25;1.73;;;1.63;;
5149;SDS011;2593;52.466;13.436;2022-10-16T03:06:51;2.63;;;2.03;;
5149;SDS011;2593;52.466;13.436;2022-10-16T03:09:16;5.63;;;2.97;;
5149;SDS011;2593;52.466;13.436;2022-10-16T03:11:42;1.83;;;1.73;;
5149;SDS011;2593;52.466;13.436;2022-10-16T03:14:07;1.90;;;1.53;;
5149;SDS011;2593;52.466;13.436;2022-10-16T03:16:33;2.00;;;1.90;;
5149;SDS011;2593;52.466;13.436;2022-10-16T03:18:58;2.60;;;2.10;;
5149;SDS011;2593;52.466;13.436;2022-10-16T03:21:24;2.13;;;2.03;;
5149;SDS011;2593;52.466;13.436;2022-10-16T03:23:49;3.27;;;2.10;;
5149;SDS011;2593;52.466;13.436;2022-10-16T03:26:15;2.73;;;1.77;;
5149;SDS011;2593;52.466;13.436;2022-10-16T03:28:40;1.57;;;1.47;;
5149;SDS011;2593;52.466;13.436;2022-10-16T03:31:06;4.20;;;1.77;;
5149;SDS011;2593;52.466;13.436;2022-10-16T03:33:33;1.90;;;1.80;;
5149;SDS011;2593;52.466;13.436;2022-10-16T03:35:59;7.57;;;2.17;;
5149;SDS011;2593;52.466;13.436;2022-10-16T03:38:25;5.53;;;3.10;;
5149;SDS011;2593;52.466;13.436;2022-10-16T03:40:50;7.93;;;3.53;;
5149;SDS011;2593;52.466;13.436;2022-10-16T03:43:16;11.40;;;3.10;;
5149;SDS011;2593;52.466;13.436;2022-10-16T03:45:42;2.20;;;2.10;;
5149;SDS011;2593;52.466;13.436;2022-10-16T03:48:07;4.40;;;2.23;;
5149;SDS011;2593;52.466;13.436;2022-10-16T03:50:33;2.43;;;2.23;;
5149;SDS011;2593;52.466;13.436;2022-10-16T03:52:58;2.23;;;2.00;;
5149;SDS011;2593;52.466;13.436;2022-10-16T03:55:24;2.03;;;1.93;;
5149;SDS011;2593;52.466;13.436;2022-10-16T03:57:49;4.80;;;2.30;;
5149;SDS011;2593;52.466;13.436;2022-10-16T04:00:15;10.10;;;2.20;;
5149;SDS011;2593;52.466;13.436;2022-10-16T04:02:40;6.13;;;2.50;;
5149;SDS011;2593;52.466;13.436;2022-10-16T04:05:06;2.83;;;2.63;;
5149;SDS011;2593;52.466;13.436;2022-10-16T04:07:32;2.70;;;2.50;;
5149;SDS011;2593;52.466;13.436;2022-10-16T04:09:57;2.00;;;1.90;;
5149;SDS011;2593;52.466;13.436;2022-10-16T04:12:24;1.93;;;1.83;;
5149;SDS011;2593;52.466;13.436;2022-10-16T04:14:50;2.33;;;2.13;;
5149;SDS011;2593;52.466;13.436;2022-10-16T04:17:15;1.70;;;1.60;;
5149;SDS011;2593;52.466;13.436;2022-10-16T04:19:41;2.70;;;2.50;;
5149;SDS011;2593;52.466;13.436;2022-10-16T04:22:06;2.40;;;2.20;;
5149;SDS011;2593;52.466;13.436;2022-10-16T04:24:32;2.23;;;1.80;;
5149;SDS011;2593;52.466;13.436;2022-10-16T04:26:58;1.83;;;1.73;;
5149;SDS011;2593;52.466;13.436;2022-10-16T04:29:23;2.43;;;2.23;;
5149;SDS011;2593;52.466;13.436;2022-10-16T04:31:49;2.03;;;1.93;;
5149;SDS011;2593;52.466;13.436;2022-10-16T04:34:14;5.13;;;2.10;;
5149;SDS011;2593;52.466;13.436;2022-10-16T04:36:40;2.47;;;2.27;;
5149;SDS011;2593;52.466;13.436;2022-10-16T04:39:06;2.90;;;2.70;;
5149;SDS011;2593;52.466;13.436;2022-10-16T04:41:31;3.47;;;2.10;;
5149;SDS011;2593;52.466;13.436;2022-10-16T04:43:57;2.30;;;1.87;;
5149;SDS011;2593;52.466;13.436;2022-10-16T04:46:22;1.90;;;1.80;;
5149;SDS011;2593;52.466;13.436;2022-10-16T04:48:48;2.30;;;2.13;;
5149;SDS011;2593;52.466;13.436;2022-10-16T04:51:14;3.20;;;2.30;;
5149;SDS011;2593;52.466;13.436;2022-10-16T04:53:39;2.60;;;2.30;;
5149;SDS011;2593;52.466;13.436;2022-10-16T04:56:05;2.70;;;2.50;;
5149;SDS011;2593;52.466;13.436;2022-10-16T04:58:30;2.83;;;2.50;;
5149;SDS011;2593;52.466;13.436;2022-10-16T05:00:56;3.00;;;2.80;;
5149;SDS011;2593;52.466;13.436;2022-10-16T05:03:22;4.50;;;2.53;;
5149;SDS011;2593;52.466;13.436;2022-10-16T05:05:47;5.43;;;2.20;;
5149;SDS011;2593;52.466;13.436;2022-10-16T05:08:13;4.73;;;2.30;;
5149;SDS011;2593;52.466;13.436;2022-10-16T05:10:40;2.80;;;2.60;;
5149;SDS011;2593;52.466;13.436;2022-10-16T05:13:07;3.00;;;2.80;;
5149;SDS011;2593;52.466;13.436;2022-10-16T05:15:33;9.90;;;3.03;;
5149;SDS011;2593;52.466;13.436;2022-10-16T05:17:58;3.57;;;2.53;;
5149;SDS011;2593;52.466;13.436;2022-10-16T05:20:24;3.10;;;2.50;;
5149;SDS011;2593;52.466;13.436;2022-10-16T05:22:50;2.10;;;2.00;;
5149;SDS011;2593;52.466;13.436;2022-10-16T05:25:15;2.67;;;2.47;;
5149;SDS011;2593;52.466;13.436;2022-10-16T05:27:41;3.30;;;2.83;;
5149;SDS011;2593;52.466;13.436;2022-10-16T05:30:07;2.83;;;2.30;;
5149;SDS011;2593;52.466;13.436;2022-10-16T05:32:33;2.60;;;2.50;;
5149;SDS011;2593;52.466;13.436;2022-10-16T05:34:58;2.23;;;2.13;;
5149;SDS011;2593;52.466;13.436;2022-10-16T05:37:24;2.40;;;2.20;;
5149;SDS011;2593;52.466;13.436;2022-10-16T05:39:52;2.60;;;2.40;;
5149;SDS011;2593;52.466;13.436;2022-10-16T05:42:17;4.50;;;2.60;;
5149;SDS011;2593;52.466;13.436;2022-10-16T05:44:43;2.80;;;2.60;;
5149;SDS011;2593;52.466;13.436;2022-10-16T05:47:08;3.47;;;2.37;;
5149;SDS011;2593;52.466;13.436;2022-10-16T05:49:35;4.70;;;2.90;;
5149;SDS011;2593;52.466;13.436;2022-10-16T05:52:01;4.67;;;3.30;;
5149;SDS011;2593;52.466;13.436;2022-10-16T05:54:26;6.30;;;2.00;;
5149;SDS011;2593;52.466;13.436;2022-10-16T05:56:52;4.30;;;3.70;;
5149;SDS011;2593;52.466;13.436;2022-10-16T05:59:17;4.70;;;2.50;;
5149;SDS011;2593;52.466;13.436;2022-10-16T06:01:43;4.30;;;3.03;;
5149;SDS011;2593;52.466;13.436;2022-10-16T06:04:09;3.20;;;2.23;;
5149;SDS011;2593;52.466;13.436;2022-10-16T06:06:34;3.10;;;2.50;;
5149;SDS011;2593;52.466;13.436;2022-10-16T06:09:01;2.73;;;2.60;;
5149;SDS011;2593;52.466;13.436;2022-10-16T06:11:28;2.30;;;2.10;;
5149;SDS011;2593;52.466;13.436;2022-10-16T06:13:56;2.43;;;2.20;;
5149;SDS011;2593;52.466;13.436;2022-10-16T06:16:23;2.40;;;2.30;;
5149;SDS011;2593;52.466;13.436;2022-10-16T06:18:50;7.20;;;3.23;;
5149;SDS011;2593;52.466;13.436;2022-10-16T06:21:18;3.93;;;3.43;;
5149;SDS011;2593;52.466;13.436;2022-10-16T06:23:45;3.57;;;3.27;;
5149;SDS011;2593;52.466;13.436;2022-10-16T06:26:13;2.57;;;2.40;;
5149;SDS011;2593;52.466;13.436;2022-10-16T06:28:40;3.13;;;2.47;;
5149;SDS011;2593;52.466;13.436;2022-10-16T06:31:06;2.30;;;2.17;;
5149;SDS011;2593;52.466;13.436;2022-10-16T06:33:33;2.47;;;2.27;;
5149;SDS011;2593;52.466;13.436;2022-10-16T06:36:00;4.70;;;2.93;;
5149;SDS011;2593;52.466;13.436;2022-10-16T06:38:29;6.33;;;2.07;;
5149;SDS011;2593;52.466;13.436;2022-10-16T06:40:55;3.77;;;2.20;;
5149;SDS011;2593;52.466;13.436;2022-10-16T06:43:21;3.97;;;2.60;;
5149;SDS011;2593;52.466;13.436;2022-10-16T06:45:54;3.07;;;2.87;;
5149;SDS011;2593;52.466;13.436;2022-10-16T06:48:21;2.13;;;2.03;;
5149;SDS011;2593;52.466;13.436;2022-10-16T06:53:37;2.93;;;2.63;;
5149;SDS011;2593;52.466;13.436;2022-10-16T06:56:08;2.30;;;2.20;;
5149;SDS011;2593;52.466;13.436;2022-10-16T06:58:38;3.33;;;2.97;;
5149;SDS011;2593;52.466;13.436;2022-10-16T07:01:05;3.67;;;2.40;;
5149;SDS011;2593;52.466;13.436;2022-10-16T07:03:31;6.73;;;2.43;;
5149;SDS011;2593;52.466;13.436;2022-10-16T07:05:56;2.93;;;2.17;;
5149;SDS011;2593;52.466;13.436;2022-10-16T07:08:26;6.30;;;3.87;;
5149;SDS011;2593;52.466;13.436;2022-10-16T07:10:57;2.97;;;2.73;;
5149;SDS011;2593;52.466;13.436;2022-10-16T07:13:25;3.00;;;2.70;;
5149;SDS011;2593;52.466;13.436;2022-10-16T07:15:51;2.67;;;2.50;;
5149;SDS011;2593;52.466;13.436;2022-10-16T07:18:16;10.60;;;2.30;;
5149;SDS011;2593;52.466;13.436;2022-10-16T07:20:42;4.67;;;2.50;;
5149;SDS011;2593;52.466;13.436;2022-10-16T07:23:07;2.50;;;1.80;;
5149;SDS011;2593;52.466;13.436;2022-10-16T07:25:33;6.63;;;1.90;;
5149;SDS011;2593;52.466;13.436;2022-10-16T07:27:58;1.80;;;1.70;;
5149;SDS011;2593;52.466;13.436;2022-10-16T07:30:24;2.70;;;2.50;;
5149;SDS011;2593;52.466;13.436;2022-10-16T07:32:49;2.40;;;1.73;;
5149;SDS011;2593;52.466;13.436;2022-10-16T07:35:15;1.67;;;1.57;;
5149;SDS011;2593;52.466;13.436;2022-10-16T07:37:43;2.50;;;1.47;;
5149;SDS011;2593;52.466;13.436;2022-10-16T07:40:10;1.80;;;1.70;;
5149;SDS011;2593;52.466;13.436;2022-10-16T07:42:36;2.00;;;1.53;;
5149;SDS011;2593;52.466;13.436;2022-10-16T07:45:02;1.40;;;1.30;;
5149;SDS011;2593;52.466;13.436;2022-10-16T07:47:28;1.20;;;1.10;;
5149;SDS011;2593;52.466;13.436;2022-10-16T07:49:53;1.37;;;1.17;;
5149;SDS011;2593;52.466;13.436;2022-10-16T07:52:19;1.87;;;1.50;;
5149;SDS011;2593;52.466;13.436;2022-10-16T07:54:44;2.80;;;1.20;;
5149;SDS011;2593;52.466;13.436;2022-10-16T07:57:10;4.37;;;1.23;;
5149;SDS011;2593;52.466;13.436;2022-10-16T07:59:35;1.20;;;1.10;;
5149;SDS011;2593;52.466;13.436;2022-10-16T08:02:01;3.70;;;1.17;;
5149;SDS011;2593;52.466;13.436;2022-10-16T08:04:27;1.60;;;1.30;;
5149;SDS011;2593;52.466;13.436;2022-10-16T08:06:52;2.03;;;1.70;;
5149;SDS011;2593;52.466;13.436;2022-10-16T08:09:19;2.33;;;1.33;;
5149;SDS011;2593;52.466;13.436;2022-10-16T08:11:44;3.07;;;1.37;;
5149;SDS011;2593;52.466;13.436;2022-10-16T08:14:10;2.60;;;1.43;;
5149;SDS011;2593;52.466;13.436;2022-10-16T08:16:35;3.57;;;1.20;;
5149;SDS011;2593;52.466;13.436;2022-10-16T08:19:01;1.30;;;1.20;;
5149;SDS011;2593;52.466;13.436;2022-10-16T08:21:27;5.13;;;1.47;;
5149;SDS011;2593;52.466;13.436;2022-10-16T08:23:53;1.50;;;1.40;;
5149;SDS011;2593;52.466;13.436;2022-10-16T08:26:20;3.43;;;1.37;;
5149;SDS011;2593;52.466;13.436;2022-10-16T08:28:45;9.93;;;1.80;;
5149;SDS011;2593;52.466;13.436;2022-10-16T08:31:14;3.37;;;1.50;;
5149;SDS011;2593;52.466;13.436;2022-10-16T08:33:41;1.30;;;1.20;;
5149;SDS011;2593;52.466;13.436;2022-10-16T08:36:10;1.30;;;1.00;;
5149;SDS011;2593;52.466;13.436;2022-10-16T08:38:36;1.93;;;1.23;;
5149;SDS011;2593;52.466;13.436;2022-10-16T08:46:42;8.63;;;1.40;;
5149;SDS011;2593;52.466;13.436;2022-10-16T08:49:16;3.43;;;1.63;;
5149;SDS011;2593;52.466;13.436;2022-10-16T08:51:43;1.93;;;1.80;;
5149;SDS011;2593;52.466;13.436;2022-10-16T08:56:56;6.47;;;1.33;;
5149;SDS011;2593;52.466;13.436;2022-10-16T08:59:26;2.90;;;1.60;;
5149;SDS011;2593;52.466;13.436;2022-10-16T09:01:52;5.23;;;2.57;;
5149;SDS011;2593;52.466;13.436;2022-10-16T09:07:20;4.40;;;1.77;;
5149;SDS011;2593;52.466;13.436;2022-10-16T09:09:59;5.23;;;1.47;;
5149;SDS011;2593;52.466;13.436;2022-10-16T09:12:51;1.30;;;1.20;;
5149;SDS011;2593;52.466;13.436;2022-10-16T09:15:49;2.27;;;1.10;;
5149;SDS011;2593;52.466;13.436;2022-10-16T09:18:52;1.20;;;0.90;;
5149;SDS011;2593;52.466;13.436;2022-10-16T09:21:30;8.90;;;1.10;;
5149;SDS011;2593;52.466;13.436;2022-10-16T09:24:07;1.50;;;1.40;;
5149;SDS011;2593;52.466;13.436;2022-10-16T09:26:37;1.53;;;1.43;;
5149;SDS011;2593;52.466;13.436;2022-10-16T09:29:03;10.33;;;1.00;;
5149;SDS011;2593;52.466;13.436;2022-10-16T09:31:28;1.27;;;1.17;;
5149;SDS011;2593;52.466;13.436;2022-10-16T09:33:58;1.20;;;1.10;;
5149;SDS011;2593;52.466;13.436;2022-10-16T09:36:29;1.50;;;1.20;;
5149;SDS011;2593;52.466;13.436;2022-10-16T09:39:06;2.30;;;0.93;;
5149;SDS011;2593;52.466;13.436;2022-10-16T09:41:34;2.43;;;1.07;;
5149;SDS011;2593;52.466;13.436;2022-10-16T09:44:02;2.43;;;1.50;;
5149;SDS011;2593;52.466;13.436;2022-10-16T09:46:31;1.50;;;1.00;;
5149;SDS011;2593;52.466;13.436;2022-10-16T09:48:59;0.95;;;0.95;;
5149;SDS011;2593;52.466;13.436;2022-10-16T09:54:12;1.30;;;1.20;;
5149;SDS011;2593;52.466;13.436;2022-10-16T09:56:38;1.95;;;0.90;;
5149;SDS011;2593;52.466;13.436;2022-10-16T09:59:45;3.13;;;0.90;;
5149;SDS011;2593;52.466;13.436;2022-10-16T10:01:56;1.55;;;1.00;;
5149;SDS011;2593;52.466;13.436;2022-10-16T10:04:36;0.90;;;0.90;;
5149;SDS011;2593;52.466;13.436;2022-10-16T10:07:04;2.90;;;1.20;;
5149;SDS011;2593;52.466;13.436;2022-10-16T10:09:34;1.73;;;1.10;;
5149;SDS011;2593;52.466;13.436;2022-10-16T10:12:04;1.57;;;1.17;;
5149;SDS011;2593;52.466;13.436;2022-10-16T10:14:32;1.10;;;0.70;;
5149;SDS011;2593;52.466;13.436;2022-10-16T10:17:14;1.10;;;1.00;;
5149;SDS011;2593;52.466;13.436;2022-10-16T10:19:58;1.53;;;0.93;;
5149;SDS011;2593;52.466;13.436;2022-10-16T10:27:39;3.60;;;1.10;;
5149;SDS011;2593;52.466;13.436;2022-10-16T10:36:12;1.20;;;0.90;;
5149;SDS011;2593;52.466;13.436;2022-10-16T10:38:51;4.50;;;1.20;;
5149;SDS011;2593;52.466;13.436;2022-10-16T10:41:26;1.50;;;1.10;;
5149;SDS011;2593;52.466;13.436;2022-10-16T10:46:51;1.43;;;1.00;;
5149;SDS011;2593;52.466;13.436;2022-10-16T10:55:39;4.17;;;0.90;;
5149;SDS011;2593;52.466;13.436;2022-10-16T10:58:36;1.37;;;1.10;;
5149;SDS011;2593;52.466;13.436;2022-10-16T11:01:18;1.50;;;1.40;;
5149;SDS011;2593;52.466;13.436;2022-10-16T11:06:29;2.03;;;1.00;;
5149;SDS011;2593;52.466;13.436;2022-10-16T11:09:00;3.00;;;1.03;;
5149;SDS011;2593;52.466;13.436;2022-10-16T11:16:44;1.30;;;1.03;;
5149;SDS011;2593;52.466;13.436;2022-10-16T11:19:31;1.67;;;1.57;;
5149;SDS011;2593;52.466;13.436;2022-10-16T11:24:49;1.70;;;0.90;;
5149;SDS011;2593;52.466;13.436;2022-10-16T11:27:33;1.53;;;1.43;;
5149;SDS011;2593;52.466;13.436;2022-10-16T11:30:03;4.87;;;1.37;;
5149;SDS011;2593;52.466;13.436;2022-10-16T11:41:17;1.67;;;1.13;;
5149;SDS011;2593;52.466;13.436;2022-10-16T11:49:37;4.50;;;1.60;;
5149;SDS011;2593;52.466;13.436;2022-10-16T11:52:10;1.37;;;1.10;;
5149;SDS011;2593;52.466;13.436;2022-10-16T11:54:54;3.57;;;1.70;;
5149;SDS011;2593;52.466;13.436;2022-10-16T11:57:52;1.10;;;1.00;;
5149;SDS011;2593;52.466;13.436;2022-10-16T12:00:23;3.13;;;0.90;;
5149;SDS011;2593;52.466;13.436;2022-10-16T12:03:08;4.57;;;2.90;;
5149;SDS011;2593;52.466;13.436;2022-10-16T12:08:24;9.17;;;2.93;;
5149;SDS011;2593;52.466;13.436;2022-10-16T12:10:51;10.63;;;2.03;;
5149;SDS011;2593;52.466;13.436;2022-10-16T12:13:28;2.90;;;1.90;;
5149;SDS011;2593;52.466;13.436;2022-10-16T12:16:03;0.97;;;0.87;;
5149;SDS011;2593;52.466;13.436;2022-10-16T12:18:39;9.93;;;4.90;;
5149;SDS011;2593;52.466;13.436;2022-10-16T12:21:09;2.80;;;2.27;;
5149;SDS011;2593;52.466;13.436;2022-10-16T12:23:45;3.47;;;1.40;;
5149;SDS011;2593;52.466;13.436;2022-10-16T12:26:12;2.03;;;1.63;;
5149;SDS011;2593;52.466;13.436;2022-10-16T12:28:38;6.87;;;2.23;;
5149;SDS011;2593;52.466;13.436;2022-10-16T12:31:06;1.63;;;0.80;;
5149;SDS011;2593;52.466;13.436;2022-10-16T12:33:35;1.37;;;0.80;;
5149;SDS011;2593;52.466;13.436;2022-10-16T12:36:05;15.10;;;7.13;;
5149;SDS011;2593;52.466;13.436;2022-10-16T12:38:57;17.63;;;9.97;;
5149;SDS011;2593;52.466;13.436;2022-10-16T12:41:24;13.10;;;7.40;;
5149;SDS011;2593;52.466;13.436;2022-10-16T12:43:55;13.93;;;6.40;;
5149;SDS011;2593;52.466;13.436;2022-10-16T12:46:23;3.47;;;2.50;;
5149;SDS011;2593;52.466;13.436;2022-10-16T12:48:48;9.93;;;6.20;;
5149;SDS011;2593;52.466;13.436;2022-10-16T12:51:22;1.23;;;1.13;;
5149;SDS011;2593;52.466;13.436;2022-10-16T12:56:54;1.10;;;1.00;;
5149;SDS011;2593;52.466;13.436;2022-10-16T13:10:14;7.23;;;1.67;;
5149;SDS011;2593;52.466;13.436;2022-10-16T13:13:10;10.90;;;7.50;;
5149;SDS011;2593;52.466;13.436;2022-10-16T13:18:32;5.27;;;3.57;;
5149;SDS011;2593;52.466;13.436;2022-10-16T13:21:21;26.20;;;12.00;;
5149;SDS011;2593;52.466;13.436;2022-10-16T13:29:29;4.20;;;1.03;;
5149;SDS011;2593;52.466;13.436;2022-10-16T13:31:57;1.40;;;1.03;;
5149;SDS011;2593;52.466;13.436;2022-10-16T13:34:23;5.00;;;3.23;;
5149;SDS011;2593;52.466;13.436;2022-10-16T13:36:51;11.13;;;2.63;;
5149;SDS011;2593;52.466;13.436;2022-10-16T13:39:24;10.63;;;5.20;;
5149;SDS011;2593;52.466;13.436;2022-10-16T13:42:00;27.40;;;12.70;;
5149;SDS011;2593;52.466;13.436;2022-10-16T13:44:26;29.27;;;16.00;;
5149;SDS011;2593;52.466;13.436;2022-10-16T13:47:01;17.57;;;10.17;;
5149;SDS011;2593;52.466;13.436;2022-10-16T13:49:27;15.10;;;8.90;;
5149;SDS011;2593;52.466;13.436;2022-10-16T13:51:54;36.00;;;16.17;;
5149;SDS011;2593;52.466;13.436;2022-10-16T13:54:21;46.23;;;22.23;;
5149;SDS011;2593;52.466;13.436;2022-10-16T13:56:47;29.47;;;14.80;;
5149;SDS011;2593;52.466;13.436;2022-10-16T14:02:04;19.20;;;9.37;;
5149;SDS011;2593;52.466;13.436;2022-10-16T14:04:39;2.03;;;1.80;;
5149;SDS011;2593;52.466;13.436;2022-10-16T14:07:05;4.40;;;2.00;;
5149;SDS011;2593;52.466;13.436;2022-10-16T14:09:39;5.00;;;3.63;;
5149;SDS011;2593;52.466;13.436;2022-10-16T14:12:10;6.80;;;3.67;;
5149;SDS011;2593;52.466;13.436;2022-10-16T14:14:43;7.03;;;2.60;;
5149;SDS011;2593;52.466;13.436;2022-10-16T14:17:14;8.03;;;3.40;;
5149;SDS011;2593;52.466;13.436;2022-10-16T14:19:48;14.87;;;6.47;;
5149;SDS011;2593;52.466;13.436;2022-10-16T14:22:29;11.60;;;6.07;;
5149;SDS011;2593;52.466;13.436;2022-10-16T14:25:16;12.77;;;7.00;;
5149;SDS011;2593;52.466;13.436;2022-10-16T14:27:59;3.00;;;2.53;;
5149;SDS011;2593;52.466;13.436;2022-10-16T14:30:35;5.73;;;3.57;;
5149;SDS011;2593;52.466;13.436;2022-10-16T14:33:05;12.90;;;3.10;;
5149;SDS011;2593;52.466;13.436;2022-10-16T14:35:44;7.23;;;1.00;;
5149;SDS011;2593;52.466;13.436;2022-10-16T14:38:18;3.57;;;1.10;;
5149;SDS011;2593;52.466;13.436;2022-10-16T14:40:48;1.00;;;0.90;;
5149;SDS011;2593;52.466;13.436;2022-10-16T14:43:18;2.70;;;1.57;;
5149;SDS011;2593;52.466;13.436;2022-10-16T14:45:54;4.30;;;3.40;;
5149;SDS011;2593;52.466;13.436;2022-10-16T14:48:21;11.17;;;4.87;;
5149;SDS011;2593;52.466;13.436;2022-10-16T14:50:47;10.43;;;5.50;;
5149;SDS011;2593;52.466;13.436;2022-10-16T14:53:13;17.27;;;10.60;;
5149;SDS011;2593;52.466;13.436;2022-10-16T14:55:40;9.53;;;4.37;;
5149;SDS011;2593;52.466;13.436;2022-10-16T14:58:11;5.50;;;3.37;;
5149;SDS011;2593;52.466;13.436;2022-10-16T15:00:39;3.00;;;1.80;;
5149;SDS011;2593;52.466;13.436;2022-10-16T15:03:05;3.10;;;2.37;;
5149;SDS011;2593;52.466;13.436;2022-10-16T15:05:31;10.67;;;5.00;;
5149;SDS011;2593;52.466;13.436;2022-10-16T15:07:57;5.00;;;3.37;;
5149;SDS011;2593;52.466;13.436;2022-10-16T15:10:23;4.83;;;2.80;;
5149;SDS011;2593;52.466;13.436;2022-10-16T15:12:50;3.53;;;2.70;;
5149;SDS011;2593;52.466;13.436;2022-10-16T15:17:48;1.90;;;1.70;;
5149;SDS011;2593;52.466;13.436;2022-10-16T15:20:25;24.60;;;12.37;;
5149;SDS011;2593;52.466;13.436;2022-10-16T15:22:56;17.93;;;8.87;;
5149;SDS011;2593;52.466;13.436;2022-10-16T15:27:51;8.07;;;4.90;;
5149;SDS011;2593;52.466;13.436;2022-10-16T15:30:16;5.40;;;2.80;;
5149;SDS011;2593;52.466;13.436;2022-10-16T15:32:42;3.83;;;1.40;;
5149;SDS011;2593;52.466;13.436;2022-10-16T15:35:10;3.97;;;2.37;;
5149;SDS011;2593;52.466;13.436;2022-10-16T15:37:36;5.60;;;3.07;;
5149;SDS011;2593;52.466;13.436;2022-10-16T15:40:01;2.93;;;1.97;;
5149;SDS011;2593;52.466;13.436;2022-10-16T15:42:27;5.17;;;3.20;;
5149;SDS011;2593;52.466;13.436;2022-10-16T15:44:53;12.17;;;5.83;;
5149;SDS011;2593;52.466;13.436;2022-10-16T15:47:18;15.27;;;5.83;;
5149;SDS011;2593;52.466;13.436;2022-10-16T15:49:44;5.53;;;2.77;;
5149;SDS011;2593;52.466;13.436;2022-10-16T15:52:10;8.67;;;3.73;;
5149;SDS011;2593;52.466;13.436;2022-10-16T15:54:36;5.33;;;4.43;;
5149;SDS011;2593;52.466;13.436;2022-10-16T15:57:02;5.27;;;3.07;;
5149;SDS011;2593;52.466;13.436;2022-10-16T15:59:27;7.23;;;2.90;;
5149;SDS011;2593;52.466;13.436;2022-10-16T16:01:53;6.90;;;2.97;;
5149;SDS011;2593;52.466;13.436;2022-10-16T16:04:19;13.07;;;5.87;;
5149;SDS011;2593;52.466;13.436;2022-10-16T16:06:44;6.10;;;4.03;;
5149;SDS011;2593;52.466;13.436;2022-10-16T16:09:11;10.83;;;5.87;;
5149;SDS011;2593;52.466;13.436;2022-10-16T16:11:37;13.57;;;6.77;;
5149;SDS011;2593;52.466;13.436;2022-10-16T16:14:04;10.90;;;7.17;;
5149;SDS011;2593;52.466;13.436;2022-10-16T16:16:35;10.63;;;6.87;;
5149;SDS011;2593;52.466;13.436;2022-10-16T16:19:03;12.70;;;6.80;;
5149;SDS011;2593;52.466;13.436;2022-10-16T16:21:32;11.63;;;7.23;;
5149;SDS011;2593;52.466;13.436;2022-10-16T16:23:58;13.13;;;6.43;;
5149;SDS011;2593;52.466;13.436;2022-10-16T16:26:28;7.70;;;4.93;;
5149;SDS011;2593;52.466;13.436;2022-10-16T16:28:58;14.70;;;7.13;;
5149;SDS011;2593;52.466;13.436;2022-10-16T16:31:25;29.87;;;15.47;;
5149;SDS011;2593;52.466;13.436;2022-10-16T16:33:52;35.87;;;20.03;;
5149;SDS011;2593;52.466;13.436;2022-10-16T16:36:18;50.50;;;24.67;;
5149;SDS011;2593;52.466;13.436;2022-10-16T16:38:45;33.90;;;17.50;;
5149;SDS011;2593;52.466;13.436;2022-10-16T16:41:11;28.60;;;14.40;;
5149;SDS011;2593;52.466;13.436;2022-10-16T16:43:42;28.23;;;12.60;;
5149;SDS011;2593;52.466;13.436;2022-10-16T16:46:07;18.70;;;10.30;;
5149;SDS011;2593;52.466;13.436;2022-10-16T16:48:33;22.07;;;12.00;;
5149;SDS011;2593;52.466;13.436;2022-10-16T16:51:03;22.00;;;12.77;;
5149;SDS011;2593;52.466;13.436;2022-10-16T16:53:29;33.77;;;20.47;;
5149;SDS011;2593;52.466;13.436;2022-10-16T16:55:55;41.77;;;21.60;;
5149;SDS011;2593;52.466;13.436;2022-10-16T16:58:25;38.50;;;19.40;;
5149;SDS011;2593;52.466;13.436;2022-10-16T17:00:50;28.30;;;14.20;;
5149;SDS011;2593;52.466;13.436;2022-10-16T17:03:16;26.30;;;12.60;;
5149;SDS011;2593;52.466;13.436;2022-10-16T17:05:41;30.47;;;17.37;;
5149;SDS011;2593;52.466;13.436;2022-10-16T17:08:07;42.83;;;23.73;;